Terminal Aerodrome Forecast
Issued by NWS Melbourne, FL

Home | Current Version | Previous Version | Text Only | Print | Product List | Glossary On
Versions: 1 2 3 4 5 6 7 8 9 10 11 12 13 14 15
000
FTUS42 KMLB 231700
TAFDAB
TAF
KDAB 231722Z 2318/2418 27006KT P6SM VCTS SCT025CB BKN040 BKN200
      TEMPO 2318/2320 4SM TSRA BKN025CB
     FM232100 20006KT P6SM VCSH SCT025 BKN060
     FM240200 15003KT P6SM SCT040 BKN150
      TEMPO 2409/2412 5SM BR FEW005=

USA.gov is the U.S. government's official web portal to all federal, state and local government web resources and services.